Líbí se Vám tento web? Budeme velmi rádi, pokud přidáte hodnocení +1

Seznam meteostanic a jejich METAR

Vyhledat místa podle abecedy:
A B C D E F G H I J K L M N O P Q R S T U V W X Y Z

Filtrovat:

ID stanice:
a/nebo
Název místa (fulltext):
 
Místo (ID)Naposledy načteno 
Odense (EKOD) 19.01.2018 14:50 UTC Zobrazit METAR
EKOD 191450Z 20005KT 170V230 9999 FEW008 SCT010 BKN035 03/02 Q1003
Odesa (UKOO) Zatím nenačteno  
Osijek (LDOS) 20.01.2018 03:00 UTC Zobrazit METAR
LDOS 200300Z 24010KT 9999 FEW013 BKN040 02/01 Q1015
Oslo (ENGM) 20.01.2018 02:50 UTC Zobrazit METAR
ENGM 200250Z 00000KT 9999 OVC010 M04/M05 Q1003
Ostend (EBOS) 20.01.2018 02:50 UTC Zobrazit METAR
EBOS 200250Z 26014KT 9999 FEW020 04/01 Q1008 TEMPO 28020G30KT
Ostrava (LKMT) 20.01.2018 03:00 UTC Zobrazit METAR
LKMT 200300Z 20005KT 9999 SCT030 00/M01 Q1010 NOSIG
Ottawa (CYOW) 20.01.2018 03:00 UTC Zobrazit METAR
CYOW 200300Z 20011KT 10SM SCT065 OVC086 M00/M05 A2964 RMK SC3AC5 PRESFR SLP043
Ouagadougou (DFFD) 19.01.2018 22:00 UTC Zobrazit METAR
DFFD 192200Z 04004KT 8000 NSC 23/M02 Q1014 NOSIG
Oulu (EFOU) 20.01.2018 02:50 UTC Zobrazit METAR
EFOU 200250Z AUTO 00000KT 9999 -SN BKN034/// M13/M14 Q1012
Reklama

Počasí na Váš email

Emaily jsou bez reklamy a bez spamu



Odhlásit newsletter

Reklama


Lunární kalendář

  • 24.01.
  • 31.01.
  • 07.02.
  • 15.02.



Jsme na Google Plus

Reklama
Povinné ručení



Může Vás také zajímat:


Reklama